Main page
METAR-TAF:

METAR-TAF

Airports :

Southwest Michigan Regional Airport

Benton Harbor, Michigan, United States

latitude: 42-07-43N, longitude: 086-25-42W, elevation: 643 ft

Current weather observation

The report was made 1 hour and 19 minutes ago, at 21:53 UTC
Wind 12 mph from the Southwest
Temperature 88°F
Humidity 59%
Pressure 29.92 in. Hg
Visibility: 10 miles
Clear sky

METAR: KBEH 142153Z AUTO 22010KT 10SM CLR 31/22 A2992 RMK AO2 SLP126 T03060217

Time: 19:12 (23:12 UTC)


TAF: missing

Weather observations and forecasts of more than 4000 airports (METAR and TAF reports).

The available stations are represented by yellow and red dots on the map.

Hover mouse over dot to see the name of the station.

Then click to see weather observations and forecasts.

To change the map : click on the green buttons with a black cross to zoom in, on the green button with a dash to zoom out, or on the green arrows for adjacent maps.


METAR-TAF: